createdAt,value
2023-08-25T00:01:32.864Z,56.10
2023-08-25T00:04:00.911Z,55.51
2023-08-25T00:06:28.852Z,55.09
2023-08-25T00:08:56.770Z,54.40
2023-08-25T00:11:25.950Z,53.66
2023-08-25T00:13:54.222Z,53.71
2023-08-25T00:16:22.831Z,53.59
2023-08-25T00:18:50.763Z,54.41
2023-08-25T00:21:18.729Z,55.23
2023-08-25T00:23:46.719Z,55.78
2023-08-25T00:26:14.635Z,56.22
2023-08-25T00:28:44.031Z,56.43
2023-08-25T00:31:12.015Z,56.67
2023-08-25T00:33:49.409Z,56.53
2023-08-25T00:36:17.509Z,56.75
2023-08-25T00:38:45.574Z,56.80
2023-08-25T00:41:13.513Z,56.53
2023-08-25T00:43:41.434Z,56.08
2023-08-25T00:46:11.088Z,55.90
2023-08-25T00:48:40.354Z,55.26
2023-08-25T00:51:10.052Z,54.85
2023-08-25T00:53:39.681Z,54.75
2023-08-25T00:56:08.079Z,54.65
2023-08-25T00:58:36.646Z,55.09
2023-08-25T01:01:07.038Z,55.24
2023-08-25T01:03:39.273Z,55.20
2023-08-25T01:06:09.940Z,55.03
2023-08-25T01:08:39.434Z,54.80
2023-08-25T01:11:20.111Z,54.58
2023-08-25T01:13:59.019Z,54.60
2023-08-25T01:16:35.258Z,54.02
2023-08-25T01:19:06.749Z,53.95
2023-08-25T01:21:36.772Z,53.39
2023-08-25T01:24:12.559Z,53.59
2023-08-25T01:26:42.806Z,53.25
2023-08-25T01:29:11.796Z,53.12
2023-08-25T01:31:40.134Z,53.25
2023-08-25T01:34:09.084Z,53.75
2023-08-25T01:36:48.231Z,54.62
2023-08-25T01:39:17.946Z,54.95
2023-08-25T01:41:54.325Z,55.54
2023-08-25T01:44:24.989Z,55.83
2023-08-25T01:46:55.895Z,55.89
2023-08-25T01:49:25.437Z,56.06
2023-08-25T01:51:53.773Z,56.38
2023-08-25T01:54:21.736Z,56.53
2023-08-25T01:56:51.086Z,57.42
2023-08-25T01:59:19.079Z,57.08
2023-08-25T02:01:47.278Z,57.19
2023-08-25T02:04:15.279Z,56.82
2023-08-25T02:06:43.180Z,57.36
2023-08-25T02:09:12.006Z,57.00
2023-08-25T02:11:41.383Z,56.89
2023-08-25T02:14:20.945Z,56.27
2023-08-25T02:16:49.733Z,55.97
2023-08-25T02:19:17.754Z,56.24
2023-08-25T02:21:47.479Z,55.87
2023-08-25T02:24:15.616Z,55.44
2023-08-25T02:26:43.666Z,54.55
2023-08-25T02:29:12.165Z,55.00
2023-08-25T02:31:42.087Z,54.38
2023-08-25T02:34:10.214Z,53.91
2023-08-25T02:36:38.109Z,53.79
2023-08-25T02:39:06.065Z,53.86
2023-08-25T02:41:36.183Z,53.41
2023-08-25T02:44:05.229Z,53.39
2023-08-25T02:46:34.005Z,53.31
2023-08-25T02:49:03.255Z,53.54
2023-08-25T02:51:31.347Z,53.64
2023-08-25T02:53:59.274Z,53.98
2023-08-25T02:56:27.279Z,55.64
2023-08-25T02:58:55.170Z,56.46
2023-08-25T03:01:23.407Z,56.27
2023-08-25T03:03:51.412Z,55.72
2023-08-25T03:06:24.335Z,55.71
2023-08-25T03:08:52.278Z,57.03
2023-08-25T03:11:20.336Z,57.80
2023-08-25T03:13:50.819Z,58.23
2023-08-25T03:16:19.236Z,58.38
2023-08-25T03:18:47.122Z,58.40
2023-08-25T03:21:15.096Z,58.73
2023-08-25T03:23:44.640Z,58.06
2023-08-25T03:26:13.325Z,57.27
2023-08-25T03:28:41.243Z,56.78
2023-08-25T03:31:09.194Z,56.66
2023-08-25T03:33:38.670Z,56.39
2023-08-25T03:36:07.176Z,55.77
2023-08-25T03:38:35.107Z,55.63
2023-08-25T03:41:04.432Z,55.08
2023-08-25T03:43:32.478Z,54.85
2023-08-25T03:46:00.457Z,54.99
2023-08-25T03:48:29.256Z,54.83
2023-08-25T03:50:57.169Z,55.45
2023-08-25T03:53:25.149Z,55.15
2023-08-25T03:55:53.397Z,55.70
2023-08-25T03:58:23.552Z,55.31
2023-08-25T04:00:53.525Z,55.49
2023-08-25T04:03:21.584Z,55.92
2023-08-25T04:05:49.661Z,55.89
2023-08-25T04:08:17.635Z,56.15
2023-08-25T04:10:45.779Z,56.10
2023-08-25T04:13:14.711Z,56.30
2023-08-25T04:15:44.026Z,56.41
2023-08-25T04:18:12.504Z,56.58
2023-08-25T04:20:40.551Z,56.50
2023-08-25T04:23:10.085Z,56.09
2023-08-25T04:25:38.374Z,56.20
2023-08-25T04:28:07.239Z,56.48
2023-08-25T04:30:35.178Z,56.38
2023-08-25T04:33:10.134Z,56.38
2023-08-25T04:35:38.106Z,56.08
2023-08-25T04:38:06.960Z,55.99
2023-08-25T04:40:35.631Z,55.54
2023-08-25T04:43:03.616Z,55.46
2023-08-25T04:45:31.813Z,56.15
2023-08-25T04:47:59.815Z,56.22
2023-08-25T04:50:29.685Z,56.14
2023-08-25T04:52:57.653Z,57.38
2023-08-25T04:55:25.536Z,57.83
2023-08-25T04:57:54.345Z,58.15
2023-08-25T05:00:22.917Z,58.84
2023-08-25T05:02:51.485Z,59.31
2023-08-25T05:05:21.069Z,59.32
2023-08-25T05:07:50.802Z,59.84
2023-08-25T05:10:19.431Z,59.43
2023-08-25T05:12:53.790Z,59.51
2023-08-25T05:15:21.945Z,59.74
2023-08-25T05:17:49.955Z,60.12
2023-08-25T05:20:21.210Z,60.26
2023-08-25T05:22:52.046Z,60.70
2023-08-25T05:25:25.210Z,61.83
2023-08-25T05:27:53.474Z,62.35
2023-08-25T05:30:21.772Z,61.64
2023-08-25T05:32:52.420Z,60.68
2023-08-25T05:35:55.651Z,60.30
2023-08-25T05:38:25.002Z,59.86
2023-08-25T05:40:52.971Z,58.83
2023-08-25T05:43:20.929Z,57.95
2023-08-25T05:45:48.913Z,57.41
2023-08-25T05:48:16.975Z,56.37
2023-08-25T05:50:46.614Z,56.26
2023-08-25T05:53:14.684Z,55.74
2023-08-25T05:55:43.934Z,56.45
2023-08-25T05:58:13.141Z,56.95
2023-08-25T06:00:41.033Z,57.39
2023-08-25T06:03:09.989Z,58.09
2023-08-25T06:05:38.184Z,58.63
2023-08-25T06:08:06.896Z,58.62
2023-08-25T06:10:36.246Z,58.63
2023-08-25T06:13:06.341Z,58.76
2023-08-25T06:15:34.446Z,58.21
2023-08-25T06:18:03.384Z,58.43
2023-08-25T06:20:31.658Z,58.31
2023-08-25T06:22:59.769Z,58.50
2023-08-25T06:25:27.690Z,58.57
2023-08-25T06:27:55.690Z,58.56
2023-08-25T06:30:25.169Z,59.13
2023-08-25T06:32:53.527Z,59.01
2023-08-25T06:35:21.576Z,58.83
2023-08-25T06:37:49.644Z,59.04
2023-08-25T06:40:17.712Z,58.44
2023-08-25T06:42:45.727Z,58.44
2023-08-25T06:45:13.658Z,58.17
2023-08-25T06:47:42.979Z,57.83
2023-08-25T06:50:11.366Z,58.25
2023-08-25T06:52:39.214Z,58.06
2023-08-25T06:55:07.620Z,57.39
2023-08-25T06:57:35.696Z,57.78
2023-08-25T07:00:06.085Z,57.44
2023-08-25T07:02:34.074Z,57.73
2023-08-25T07:05:03.388Z,57.32
2023-08-25T07:07:32.354Z,57.51
2023-08-25T07:10:00.313Z,57.42
2023-08-25T07:12:28.288Z,57.55
2023-08-25T07:14:56.193Z,58.05
2023-08-25T07:17:24.148Z,57.76
2023-08-25T07:19:52.078Z,57.43
2023-08-25T07:22:21.882Z,57.10
2023-08-25T07:24:52.003Z,56.95
2023-08-25T07:27:20.233Z,56.90
2023-08-25T07:29:48.152Z,56.58
2023-08-25T07:32:16.136Z,56.59
2023-08-25T07:34:46.776Z,56.43
2023-08-25T07:37:14.853Z,56.37
2023-08-25T07:39:44.389Z,55.96
2023-08-25T07:42:12.269Z,56.35
2023-08-25T07:44:40.208Z,56.22
2023-08-25T07:47:09.010Z,56.75
2023-08-25T07:49:36.914Z,56.49
2023-08-25T07:52:05.031Z,56.33
2023-08-25T07:54:32.936Z,56.89
2023-08-25T07:57:02.194Z,57.35
2023-08-25T07:59:30.123Z,57.65
2023-08-25T08:01:58.023Z,58.18
2023-08-25T08:04:26.042Z,58.44
2023-08-25T08:06:53.975Z,58.69
2023-08-25T08:09:21.902Z,58.45
2023-08-25T08:11:49.803Z,58.46
2023-08-25T08:14:21.588Z,58.52
2023-08-25T08:16:52.308Z,58.80
2023-08-25T08:19:20.262Z,58.59
2023-08-25T08:21:48.125Z,58.56
2023-08-25T08:24:16.131Z,58.89
2023-08-25T08:26:45.575Z,58.87
2023-08-25T08:29:13.492Z,59.28
2023-08-25T08:31:42.705Z,59.51
2023-08-25T08:34:11.434Z,59.86
2023-08-25T08:36:39.361Z,59.67
2023-08-25T08:39:07.292Z,59.86
2023-08-25T08:41:36.048Z,59.99
2023-08-25T08:44:07.419Z,60.06
2023-08-25T08:46:37.735Z,60.00
2023-08-25T08:49:08.387Z,59.67
2023-08-25T08:51:37.746Z,59.90
2023-08-25T08:54:07.289Z,59.79
2023-08-25T08:56:36.014Z,59.73
2023-08-25T08:59:05.136Z,59.68
2023-08-25T09:01:34.526Z,59.57
2023-08-25T09:04:07.153Z,59.40
2023-08-25T09:06:41.073Z,59.36
2023-08-25T09:09:10.170Z,59.35
2023-08-25T09:11:38.480Z,58.88
2023-08-25T09:14:06.463Z,58.71
2023-08-25T09:16:35.270Z,58.35
2023-08-25T09:19:04.322Z,58.41
2023-08-25T09:21:32.716Z,57.76
2023-08-25T09:24:04.205Z,58.50
2023-08-25T09:26:38.527Z,58.25
2023-08-25T09:29:06.853Z,57.43
2023-08-25T09:31:34.995Z,57.28
2023-08-25T09:34:04.590Z,57.12
2023-08-25T09:36:32.769Z,57.10
2023-08-25T09:39:07.893Z,57.17
2023-08-25T09:41:36.116Z,56.78
2023-08-25T09:44:04.839Z,56.75
2023-08-25T09:46:34.469Z,56.77
2023-08-25T09:49:03.538Z,56.81
2023-08-25T09:51:38.205Z,56.45
2023-08-25T09:54:11.070Z,56.32
2023-08-25T09:56:40.318Z,55.93
2023-08-25T09:59:09.849Z,55.91
2023-08-25T10:01:39.089Z,55.84
2023-08-25T10:04:08.806Z,55.75
2023-08-25T10:06:39.763Z,55.74
2023-08-25T10:09:09.982Z,55.75
2023-08-25T10:11:41.131Z,55.86
2023-08-25T10:14:11.440Z,55.58
2023-08-25T10:16:41.481Z,55.57
2023-08-25T10:19:15.054Z,55.26
2023-08-25T10:21:44.661Z,55.42
2023-08-25T10:24:16.097Z,55.06
2023-08-25T10:26:45.629Z,55.19
2023-08-25T10:29:16.092Z,55.27
2023-08-25T10:31:47.937Z,54.82
2023-08-25T10:34:37.060Z,54.75
2023-08-25T10:37:06.863Z,54.35
2023-08-25T10:39:50.070Z,54.46
2023-08-25T10:42:24.883Z,54.38
2023-08-25T10:44:56.609Z,53.72
2023-08-25T10:47:25.470Z,53.42
2023-08-25T10:49:57.297Z,53.46
2023-08-25T10:52:25.825Z,53.23
2023-08-25T10:54:55.988Z,53.27
2023-08-25T10:57:42.559Z,53.48
2023-08-25T11:00:28.490Z,53.02
2023-08-25T11:02:56.647Z,53.31
2023-08-25T11:05:45.823Z,53.32
2023-08-25T11:08:30.243Z,53.12
2023-08-25T11:11:13.789Z,53.46
2023-08-25T11:13:42.865Z,53.09
2023-08-25T11:16:12.292Z,52.73
2023-08-25T11:18:43.833Z,52.87
2023-08-25T11:21:11.952Z,53.25
2023-08-25T11:23:40.895Z,52.85
2023-08-25T11:26:10.317Z,52.63
2023-08-25T11:28:39.793Z,52.41
2023-08-25T11:31:08.821Z,52.12
2023-08-25T11:33:37.142Z,51.76
2023-08-25T11:36:06.519Z,51.82
2023-08-25T11:38:34.923Z,51.61
2023-08-25T11:41:02.865Z,51.72
2023-08-25T11:43:33.622Z,51.17
2023-08-25T11:46:03.066Z,50.87
2023-08-25T11:48:32.661Z,50.76
2023-08-25T11:51:00.613Z,50.70
2023-08-25T11:53:28.733Z,50.79
2023-08-25T11:56:04.057Z,51.26
2023-08-25T11:58:33.334Z,51.16
2023-08-25T12:01:06.097Z,51.20
2023-08-25T12:03:34.353Z,50.92
2023-08-25T12:06:07.577Z,48.84
2023-08-25T12:08:36.224Z,48.27
2023-08-25T12:11:04.846Z,47.73
2023-08-25T12:13:36.554Z,48.13
2023-08-25T12:16:06.933Z,47.89
2023-08-25T12:18:35.701Z,48.83
2023-08-25T12:21:04.953Z,48.11
2023-08-25T12:23:37.263Z,47.47
2023-08-25T12:26:06.252Z,47.18
2023-08-25T12:28:34.463Z,47.30
2023-08-25T12:31:03.617Z,47.67
2023-08-25T12:33:33.624Z,46.95
2023-08-25T12:36:01.916Z,45.99
2023-08-25T12:38:30.946Z,45.42
2023-08-25T12:40:59.940Z,45.54
2023-08-25T12:43:29.143Z,45.73
2023-08-25T12:45:57.703Z,45.78
2023-08-25T12:48:25.786Z,45.76
2023-08-25T12:50:55.167Z,46.35
2023-08-25T12:53:23.107Z,46.04
2023-08-25T12:55:51.056Z,46.10
2023-08-25T12:58:19.043Z,45.56
2023-08-25T13:00:47.041Z,45.43
2023-08-25T13:03:15.361Z,45.28
2023-08-25T13:05:43.456Z,45.67
2023-08-25T13:08:12.676Z,45.78
2023-08-25T13:10:40.604Z,46.09
2023-08-25T13:13:08.573Z,46.38
2023-08-25T13:15:36.514Z,46.46
2023-08-25T13:18:04.736Z,46.32
2023-08-25T13:20:33.174Z,46.12
2023-08-25T13:23:02.009Z,45.61
2023-08-25T13:25:31.223Z,45.46
2023-08-25T13:27:59.164Z,45.72
2023-08-25T13:30:27.061Z,45.44
2023-08-25T13:32:54.968Z,45.40
2023-08-25T13:35:22.944Z,45.62
2023-08-25T13:37:51.127Z,45.42
2023-08-25T13:40:19.077Z,45.11
2023-08-25T13:42:48.289Z,45.25
2023-08-25T13:45:17.421Z,45.08
2023-08-25T13:47:45.326Z,44.78
2023-08-25T13:50:13.257Z,44.67
2023-08-25T13:52:41.255Z,44.37
2023-08-25T13:55:10.817Z,44.47
2023-08-25T13:57:39.342Z,43.97
2023-08-25T14:00:11.766Z,43.28
2023-08-25T14:02:43.300Z,42.27
2023-08-25T14:05:13.922Z,41.46
2023-08-25T14:07:42.184Z,40.83
2023-08-25T14:10:11.048Z,41.20
2023-08-25T14:12:39.772Z,40.46
2023-08-25T14:15:10.777Z,40.06
2023-08-25T14:17:38.708Z,39.45
2023-08-25T14:20:08.002Z,39.79
2023-08-25T14:22:35.900Z,40.57
2023-08-25T14:25:03.805Z,40.48
2023-08-25T14:27:31.746Z,40.83
2023-08-25T14:30:00.949Z,41.01
2023-08-25T14:32:31.329Z,40.77
2023-08-25T14:34:59.577Z,41.74
2023-08-25T14:37:27.478Z,41.48
2023-08-25T14:39:55.517Z,39.24
2023-08-25T14:42:23.422Z,38.04
2023-08-25T14:44:51.289Z,37.02
2023-08-25T14:47:19.755Z,36.65
2023-08-25T14:49:49.523Z,37.14
2023-08-25T14:52:19.042Z,37.40
2023-08-25T14:54:47.165Z,37.43
2023-08-25T14:57:15.240Z,36.21
2023-08-25T14:59:43.096Z,37.02
2023-08-25T15:02:11.044Z,36.02
2023-08-25T15:04:39.214Z,36.18
2023-08-25T15:07:08.472Z,36.46
2023-08-25T15:09:36.381Z,36.43
2023-08-25T15:12:04.641Z,37.02
2023-08-25T15:14:32.505Z,36.68
2023-08-25T15:17:00.462Z,36.34
2023-08-25T15:19:28.464Z,35.77
2023-08-25T15:21:56.313Z,35.49
2023-08-25T15:24:25.834Z,35.04
2023-08-25T15:26:53.831Z,34.82
2023-08-25T15:29:23.750Z,34.81
2023-08-25T15:31:59.036Z,34.39
2023-08-25T15:34:27.401Z,34.56
2023-08-25T15:36:55.336Z,34.09
2023-08-25T15:39:23.329Z,33.54
2023-08-25T15:41:52.530Z,34.01
2023-08-25T15:44:20.575Z,33.82
2023-08-25T15:46:48.575Z,34.63
2023-08-25T15:49:16.487Z,35.42
2023-08-25T15:51:44.368Z,36.63
2023-08-25T15:54:12.267Z,36.99
2023-08-25T15:56:40.163Z,36.91
2023-08-25T15:59:09.541Z,36.90
2023-08-25T16:01:37.453Z,36.96
2023-08-25T16:04:05.778Z,36.97
2023-08-25T16:06:33.852Z,37.37
2023-08-25T16:09:01.765Z,37.34
2023-08-25T16:11:29.638Z,37.80
2023-08-25T16:13:58.070Z,38.14
2023-08-25T16:16:27.411Z,37.71
2023-08-25T16:18:55.285Z,38.21
2023-08-25T16:21:23.263Z,38.61
2023-08-25T16:23:51.180Z,38.09
2023-08-25T16:26:22.115Z,38.60
2023-08-25T16:28:50.026Z,38.64
2023-08-25T16:31:17.944Z,39.04
2023-08-25T16:33:47.204Z,39.08
2023-08-25T16:36:15.183Z,39.76
2023-08-25T16:38:43.141Z,40.13
2023-08-25T16:41:11.253Z,40.63
2023-08-25T16:43:39.358Z,41.19
2023-08-25T16:46:08.138Z,41.48
2023-08-25T16:48:36.238Z,41.04
2023-08-25T16:51:05.500Z,41.41
2023-08-25T16:53:33.417Z,41.49
2023-08-25T16:56:01.333Z,41.52
2023-08-25T16:58:29.611Z,41.41
2023-08-25T17:00:57.700Z,41.65
2023-08-25T17:03:26.155Z,42.09
2023-08-25T17:06:00.086Z,42.86
2023-08-25T17:08:30.539Z,42.74
2023-08-25T17:10:58.493Z,43.31
2023-08-25T17:13:26.379Z,43.53
2023-08-25T17:15:54.311Z,43.97
2023-08-25T17:18:22.382Z,44.19
2023-08-25T17:20:50.313Z,44.42
2023-08-25T17:23:18.334Z,44.67
2023-08-25T17:25:48.327Z,45.01
2023-08-25T17:28:17.247Z,45.17
2023-08-25T17:30:45.187Z,45.54
2023-08-25T17:33:13.330Z,45.96
2023-08-25T17:35:41.659Z,45.87
2023-08-25T17:38:10.305Z,46.19
2023-08-25T17:40:40.499Z,46.62
2023-08-25T17:43:10.881Z,47.07
2023-08-25T17:45:38.893Z,47.34
2023-08-25T17:48:07.200Z,47.58
2023-08-25T17:50:35.392Z,48.48
2023-08-25T17:53:03.254Z,48.55
2023-08-25T17:55:31.121Z,48.76
2023-08-25T17:57:58.975Z,49.02
2023-08-25T18:00:28.215Z,49.14
2023-08-25T18:02:56.559Z,49.58
2023-08-25T18:05:24.737Z,49.84
2023-08-25T18:07:52.666Z,49.86
2023-08-25T18:10:21.637Z,50.02
2023-08-25T18:12:49.480Z,50.09
2023-08-25T18:15:17.345Z,50.52
2023-08-25T18:17:46.599Z,51.25
2023-08-25T18:20:14.521Z,51.38
2023-08-25T18:22:42.562Z,51.47
2023-08-25T18:25:10.555Z,51.61
2023-08-25T18:27:38.417Z,51.46
2023-08-25T18:30:07.756Z,51.44
2023-08-25T18:32:36.041Z,52.02
2023-08-25T18:35:06.061Z,51.90
2023-08-25T18:37:33.897Z,52.09
2023-08-25T18:40:01.819Z,52.13
2023-08-25T18:42:30.251Z,52.39
2023-08-25T18:44:58.092Z,52.31
2023-08-25T18:47:26.013Z,52.93
2023-08-25T18:49:53.924Z,52.84
2023-08-25T18:52:23.325Z,53.28
2023-08-25T18:54:51.409Z,53.57
2023-08-25T18:57:23.250Z,53.27
2023-08-25T18:59:51.993Z,53.66
2023-08-25T19:02:19.909Z,53.49
2023-08-25T19:04:48.264Z,53.58
2023-08-25T19:07:16.258Z,53.75
2023-08-25T19:09:49.219Z,53.47
2023-08-25T19:12:17.628Z,53.63
2023-08-25T19:14:45.461Z,53.91
2023-08-25T19:17:13.396Z,53.66
2023-08-25T19:19:41.291Z,53.84
2023-08-25T19:22:10.249Z,53.42
2023-08-25T19:24:38.771Z,53.32
2023-08-25T19:27:08.366Z,53.54
2023-08-25T19:29:36.259Z,53.88
2023-08-25T19:32:04.207Z,53.60
2023-08-25T19:34:32.450Z,53.27
2023-08-25T19:37:00.314Z,53.81
2023-08-25T19:39:28.235Z,53.56
2023-08-25T19:41:56.081Z,53.96
2023-08-25T19:44:25.577Z,53.77
2023-08-25T19:46:53.802Z,54.19
2023-08-25T19:49:21.911Z,54.46
2023-08-25T19:51:49.865Z,54.58
2023-08-25T19:54:19.008Z,54.58
2023-08-25T19:56:46.908Z,55.09
2023-08-25T19:59:14.826Z,55.08
2023-08-25T20:01:44.025Z,55.18
2023-08-25T20:04:11.944Z,56.13
2023-08-25T20:06:41.602Z,56.49
2023-08-25T20:09:11.163Z,56.51
2023-08-25T20:11:39.265Z,56.50
2023-08-25T20:14:07.150Z,57.11
2023-08-25T20:16:35.188Z,57.22
2023-08-25T20:19:04.908Z,57.14
2023-08-25T20:21:33.925Z,56.67
2023-08-25T20:24:01.806Z,56.96
2023-08-25T20:26:29.655Z,56.49
2023-08-25T20:28:59.704Z,57.13
2023-08-25T20:31:27.949Z,56.81
2023-08-25T20:33:55.803Z,56.86
2023-08-25T20:36:25.122Z,56.86
2023-08-25T20:38:52.982Z,57.13
2023-08-25T20:41:21.070Z,56.89
2023-08-25T20:43:49.054Z,56.59
2023-08-25T20:46:18.632Z,57.17
2023-08-25T20:48:48.888Z,57.26
2023-08-25T20:51:17.217Z,56.69
2023-08-25T20:53:46.481Z,56.92
2023-08-25T20:56:14.560Z,56.97
2023-08-25T20:58:42.594Z,56.76
2023-08-25T21:01:11.162Z,56.79
2023-08-25T21:03:39.792Z,56.61
2023-08-25T21:06:08.112Z,57.28
2023-08-25T21:08:36.740Z,56.64
2023-08-25T21:11:06.165Z,56.72
2023-08-25T21:13:34.770Z,57.24
2023-08-25T21:16:02.963Z,57.13
2023-08-25T21:18:31.118Z,57.24
2023-08-25T21:21:01.097Z,57.36
2023-08-25T21:23:29.011Z,57.72
2023-08-25T21:26:00.238Z,58.27
2023-08-25T21:28:29.867Z,58.89
2023-08-25T21:30:58.830Z,59.49
2023-08-25T21:33:27.991Z,59.97
2023-08-25T21:35:56.035Z,59.97
2023-08-25T21:38:24.081Z,60.41
2023-08-25T21:40:51.984Z,61.03
2023-08-25T21:43:19.925Z,61.04
2023-08-25T21:45:50.139Z,61.26
2023-08-25T21:48:18.284Z,61.29
2023-08-25T21:50:47.806Z,61.36
2023-08-25T21:53:15.932Z,61.83
2023-08-25T21:55:44.931Z,61.44
2023-08-25T21:58:13.531Z,61.12
2023-08-25T22:00:42.239Z,60.58
2023-08-25T22:03:11.612Z,60.20
2023-08-25T22:05:39.594Z,59.80
2023-08-25T22:08:08.873Z,59.43
2023-08-25T22:10:37.638Z,59.43
2023-08-25T22:13:06.597Z,59.69
2023-08-25T22:15:34.643Z,59.27
2023-08-25T22:18:02.804Z,59.49
2023-08-25T22:20:32.105Z,59.28
2023-08-25T22:23:00.106Z,59.27
2023-08-25T22:25:28.024Z,59.62
2023-08-25T22:27:55.984Z,59.50
2023-08-25T22:30:24.112Z,59.83
2023-08-25T22:35:23.044Z,61.08
2023-08-25T22:37:52.373Z,61.73
2023-08-25T22:40:20.285Z,61.98
2023-08-25T22:42:48.136Z,62.12
2023-08-25T22:45:16.305Z,61.87
2023-08-25T22:47:44.412Z,61.68
2023-08-25T22:50:12.741Z,61.19
2023-08-25T22:52:40.683Z,61.22
2023-08-25T22:55:10.568Z,61.88
2023-08-25T22:57:38.543Z,62.67
2023-08-25T23:00:09.661Z,63.33
2023-08-25T23:02:37.695Z,64.35
2023-08-25T23:05:06.415Z,64.56
2023-08-25T23:07:34.363Z,64.96
2023-08-25T23:10:02.215Z,64.83
2023-08-25T23:12:31.713Z,64.50
2023-08-25T23:14:59.726Z,64.96
2023-08-25T23:17:27.618Z,65.49
2023-08-25T23:19:55.919Z,65.73
2023-08-25T23:22:23.883Z,65.25
2023-08-25T23:24:52.383Z,65.42
2023-08-25T23:27:20.288Z,65.40
2023-08-25T23:29:49.552Z,65.27
2023-08-25T23:32:17.410Z,65.69
2023-08-25T23:34:46.952Z,66.07
2023-08-25T23:37:14.903Z,66.25
2023-08-25T23:39:42.761Z,66.44
2023-08-25T23:42:10.793Z,66.48
2023-08-25T23:44:38.781Z,66.54
2023-08-25T23:47:08.142Z,66.86
2023-08-25T23:49:36.075Z,66.42
2023-08-25T23:52:04.761Z,66.58
2023-08-25T23:54:32.643Z,67.12
2023-08-25T23:57:00.694Z,66.68
2023-08-25T23:59:28.756Z,66.63
